sensor_id;sensor_type;location;lat;lon;timestamp;P1;durP1;ratioP1;P2;durP2;ratioP2
6121;SDS011;3091;51.506;7.672;2023-07-20T00:02:20;35.40;;;33.00;;
6121;SDS011;3091;51.506;7.672;2023-07-20T00:04:46;37.00;;;34.60;;
6121;SDS011;3091;51.506;7.672;2023-07-20T00:07:12;37.73;;;35.23;;
6121;SDS011;3091;51.506;7.672;2023-07-20T00:09:38;36.63;;;34.23;;
6121;SDS011;3091;51.506;7.672;2023-07-20T00:12:04;37.47;;;35.07;;
6121;SDS011;3091;51.506;7.672;2023-07-20T00:14:32;36.50;;;34.10;;
6121;SDS011;3091;51.506;7.672;2023-07-20T00:16:59;39.63;;;37.23;;
6121;SDS011;3091;51.506;7.672;2023-07-20T00:19:25;39.70;;;37.20;;
6121;SDS011;3091;51.506;7.672;2023-07-20T00:21:52;41.63;;;39.03;;
6121;SDS011;3091;51.506;7.672;2023-07-20T00:24:18;40.70;;;38.20;;
6121;SDS011;3091;51.506;7.672;2023-07-20T00:26:44;39.57;;;37.17;;
6121;SDS011;3091;51.506;7.672;2023-07-20T00:29:10;39.73;;;37.13;;
6121;SDS011;3091;51.506;7.672;2023-07-20T00:31:36;38.83;;;36.40;;
6121;SDS011;3091;51.506;7.672;2023-07-20T00:34:03;39.67;;;37.17;;
6121;SDS011;3091;51.506;7.672;2023-07-20T00:36:31;40.67;;;38.17;;
6121;SDS011;3091;51.506;7.672;2023-07-20T00:38:57;38.97;;;36.57;;
6121;SDS011;3091;51.506;7.672;2023-07-20T00:41:23;38.60;;;36.00;;
6121;SDS011;3091;51.506;7.672;2023-07-20T00:43:50;40.70;;;38.20;;
6121;SDS011;3091;51.506;7.672;2023-07-20T00:46:16;39.50;;;37.00;;
6121;SDS011;3091;51.506;7.672;2023-07-20T00:48:42;41.10;;;38.50;;
6121;SDS011;3091;51.506;7.672;2023-07-20T00:51:08;42.10;;;39.40;;
6121;SDS011;3091;51.506;7.672;2023-07-20T00:53:34;42.40;;;39.80;;
6121;SDS011;3091;51.506;7.672;2023-07-20T00:56:00;39.97;;;37.37;;
6121;SDS011;3091;51.506;7.672;2023-07-20T00:58:26;39.80;;;37.30;;
6121;SDS011;3091;51.506;7.672;2023-07-20T01:00:53;42.47;;;39.87;;
6121;SDS011;3091;51.506;7.672;2023-07-20T01:03:19;40.20;;;37.70;;
6121;SDS011;3091;51.506;7.672;2023-07-20T01:05:48;37.93;;;35.63;;
6121;SDS011;3091;51.506;7.672;2023-07-20T01:08:33;37.97;;;35.67;;
6121;SDS011;3091;51.506;7.672;2023-07-20T01:11:06;39.03;;;36.60;;
6121;SDS011;3091;51.506;7.672;2023-07-20T01:13:36;33.80;;;31.70;;
6121;SDS011;3091;51.506;7.672;2023-07-20T01:16:02;30.80;;;28.90;;
6121;SDS011;3091;51.506;7.672;2023-07-20T01:18:28;29.47;;;27.67;;
6121;SDS011;3091;51.506;7.672;2023-07-20T01:20:56;29.23;;;27.53;;
6121;SDS011;3091;51.506;7.672;2023-07-20T01:23:38;26.43;;;24.87;;
6121;SDS011;3091;51.506;7.672;2023-07-20T01:26:33;23.67;;;22.27;;
6121;SDS011;3091;51.506;7.672;2023-07-20T01:29:11;24.00;;;22.60;;
6121;SDS011;3091;51.506;7.672;2023-07-20T01:31:38;27.83;;;26.20;;
6121;SDS011;3091;51.506;7.672;2023-07-20T01:34:06;25.30;;;23.80;;
6121;SDS011;3091;51.506;7.672;2023-07-20T01:36:34;23.57;;;22.17;;
6121;SDS011;3091;51.506;7.672;2023-07-20T01:39:01;23.60;;;22.20;;
6121;SDS011;3091;51.506;7.672;2023-07-20T01:41:27;23.80;;;22.40;;
6121;SDS011;3091;51.506;7.672;2023-07-20T01:43:57;23.13;;;21.83;;
6121;SDS011;3091;51.506;7.672;2023-07-20T01:46:24;22.20;;;20.90;;
6121;SDS011;3091;51.506;7.672;2023-07-20T01:48:50;21.90;;;20.60;;
6121;SDS011;3091;51.506;7.672;2023-07-20T01:51:16;21.80;;;20.57;;
6121;SDS011;3091;51.506;7.672;2023-07-20T01:53:43;21.07;;;19.87;;
6121;SDS011;3091;51.506;7.672;2023-07-20T01:56:09;22.10;;;20.90;;
6121;SDS011;3091;51.506;7.672;2023-07-20T01:58:37;21.23;;;20.03;;
6121;SDS011;3091;51.506;7.672;2023-07-20T02:01:03;21.40;;;20.20;;
6121;SDS011;3091;51.506;7.672;2023-07-20T02:03:29;22.43;;;21.13;;
6121;SDS011;3091;51.506;7.672;2023-07-20T02:05:55;21.90;;;20.60;;
6121;SDS011;3091;51.506;7.672;2023-07-20T02:08:22;21.50;;;20.30;;
6121;SDS011;3091;51.506;7.672;2023-07-20T02:10:48;21.53;;;20.33;;
6121;SDS011;3091;51.506;7.672;2023-07-20T02:13:14;21.20;;;20.00;;
6121;SDS011;3091;51.506;7.672;2023-07-20T02:15:43;20.80;;;19.60;;
6121;SDS011;3091;51.506;7.672;2023-07-20T02:18:09;20.83;;;19.63;;
6121;SDS011;3091;51.506;7.672;2023-07-20T02:20:35;21.30;;;20.10;;
6121;SDS011;3091;51.506;7.672;2023-07-20T02:23:02;19.20;;;18.10;;
6121;SDS011;3091;51.506;7.672;2023-07-20T02:25:28;19.57;;;18.57;;
6121;SDS011;3091;51.506;7.672;2023-07-20T02:27:55;18.50;;;17.50;;
6121;SDS011;3091;51.506;7.672;2023-07-20T02:30:22;19.60;;;18.60;;
6121;SDS011;3091;51.506;7.672;2023-07-20T02:32:50;19.10;;;18.10;;
6121;SDS011;3091;51.506;7.672;2023-07-20T02:35:16;20.23;;;19.13;;
6121;SDS011;3091;51.506;7.672;2023-07-20T02:37:42;20.93;;;19.53;;
6121;SDS011;3091;51.506;7.672;2023-07-20T02:40:09;20.17;;;19.07;;
6121;SDS011;3091;51.506;7.672;2023-07-20T02:42:35;19.43;;;18.43;;
6121;SDS011;3091;51.506;7.672;2023-07-20T02:45:02;17.90;;;17.00;;
6121;SDS011;3091;51.506;7.672;2023-07-20T02:47:29;16.73;;;16.03;;
6121;SDS011;3091;51.506;7.672;2023-07-20T02:49:56;16.00;;;15.30;;
6121;SDS011;3091;51.506;7.672;2023-07-20T02:52:22;16.27;;;15.57;;
6121;SDS011;3091;51.506;7.672;2023-07-20T02:54:49;20.30;;;19.50;;
6121;SDS011;3091;51.506;7.672;2023-07-20T02:57:15;15.67;;;14.97;;
6121;SDS011;3091;51.506;7.672;2023-07-20T02:59:41;16.43;;;15.63;;
6121;SDS011;3091;51.506;7.672;2023-07-20T03:02:07;15.63;;;14.83;;
6121;SDS011;3091;51.506;7.672;2023-07-20T03:04:34;17.30;;;16.50;;
6121;SDS011;3091;51.506;7.672;2023-07-20T03:07:02;17.60;;;16.70;;
6121;SDS011;3091;51.506;7.672;2023-07-20T03:09:28;50.57;;;47.47;;
6121;SDS011;3091;51.506;7.672;2023-07-20T03:11:54;67.37;;;63.10;;
6121;SDS011;3091;51.506;7.672;2023-07-20T03:14:20;80.90;;;76.00;;
6121;SDS011;3091;51.506;7.672;2023-07-20T03:16:46;77.13;;;72.53;;
6121;SDS011;3091;51.506;7.672;2023-07-20T03:19:12;58.40;;;54.50;;
6121;SDS011;3091;51.506;7.672;2023-07-20T03:21:38;55.90;;;52.10;;
6121;SDS011;3091;51.506;7.672;2023-07-20T03:24:06;54.00;;;50.30;;
6121;SDS011;3091;51.506;7.672;2023-07-20T03:26:33;55.40;;;51.70;;
6121;SDS011;3091;51.506;7.672;2023-07-20T03:28:59;54.30;;;50.40;;
6121;SDS011;3091;51.506;7.672;2023-07-20T03:31:25;53.10;;;49.40;;
6121;SDS011;3091;51.506;7.672;2023-07-20T03:33:54;50.67;;;47.17;;
6121;SDS011;3091;51.506;7.672;2023-07-20T03:36:20;45.17;;;41.97;;
6121;SDS011;3091;51.506;7.672;2023-07-20T03:38:47;47.53;;;44.13;;
6121;SDS011;3091;51.506;7.672;2023-07-20T03:41:13;47.50;;;44.10;;
6121;SDS011;3091;51.506;7.672;2023-07-20T03:43:41;42.17;;;39.37;;
6121;SDS011;3091;51.506;7.672;2023-07-20T03:46:07;43.30;;;40.50;;
6121;SDS011;3091;51.506;7.672;2023-07-20T03:48:33;42.40;;;39.70;;
6121;SDS011;3091;51.506;7.672;2023-07-20T03:50:59;40.47;;;37.50;;
6121;SDS011;3091;51.506;7.672;2023-07-20T03:53:25;41.00;;;38.20;;
6121;SDS011;3091;51.506;7.672;2023-07-20T03:55:52;41.83;;;38.93;;
6121;SDS011;3091;51.506;7.672;2023-07-20T03:58:18;41.90;;;39.03;;
6121;SDS011;3091;51.506;7.672;2023-07-20T04:00:49;40.40;;;37.60;;
6121;SDS011;3091;51.506;7.672;2023-07-20T04:03:15;45.70;;;42.90;;
6121;SDS011;3091;51.506;7.672;2023-07-20T04:05:41;48.17;;;44.90;;
6121;SDS011;3091;51.506;7.672;2023-07-20T04:08:08;43.00;;;39.90;;
6121;SDS011;3091;51.506;7.672;2023-07-20T04:10:34;41.10;;;38.30;;
6121;SDS011;3091;51.506;7.672;2023-07-20T04:13:03;38.80;;;36.00;;
6121;SDS011;3091;51.506;7.672;2023-07-20T04:15:29;38.60;;;35.90;;
6121;SDS011;3091;51.506;7.672;2023-07-20T04:17:55;38.07;;;35.37;;
6121;SDS011;3091;51.506;7.672;2023-07-20T04:20:21;39.03;;;36.43;;
6121;SDS011;3091;51.506;7.672;2023-07-20T04:22:47;35.80;;;33.30;;
6121;SDS011;3091;51.506;7.672;2023-07-20T04:25:14;37.47;;;34.87;;
6121;SDS011;3091;51.506;7.672;2023-07-20T04:27:40;37.40;;;34.80;;
6121;SDS011;3091;51.506;7.672;2023-07-20T04:30:07;36.57;;;33.97;;
6121;SDS011;3091;51.506;7.672;2023-07-20T04:32:33;36.70;;;34.00;;
6121;SDS011;3091;51.506;7.672;2023-07-20T04:34:59;38.87;;;36.10;;
6121;SDS011;3091;51.506;7.672;2023-07-20T04:37:25;37.10;;;34.50;;
6121;SDS011;3091;51.506;7.672;2023-07-20T04:39:58;40.30;;;37.40;;
6121;SDS011;3091;51.506;7.672;2023-07-20T04:42:24;43.00;;;39.80;;
6121;SDS011;3091;51.506;7.672;2023-07-20T04:44:53;44.53;;;41.00;;
6121;SDS011;3091;51.506;7.672;2023-07-20T04:47:19;37.40;;;34.80;;
6121;SDS011;3091;51.506;7.672;2023-07-20T04:49:45;37.60;;;35.00;;
6121;SDS011;3091;51.506;7.672;2023-07-20T04:52:11;36.90;;;34.33;;
6121;SDS011;3091;51.506;7.672;2023-07-20T04:54:37;37.30;;;34.70;;
6121;SDS011;3091;51.506;7.672;2023-07-20T04:57:05;37.40;;;34.80;;
6121;SDS011;3091;51.506;7.672;2023-07-20T04:59:35;40.53;;;37.83;;
6121;SDS011;3091;51.506;7.672;2023-07-20T05:02:01;36.83;;;34.30;;
6121;SDS011;3091;51.506;7.672;2023-07-20T05:04:27;38.43;;;35.83;;
6121;SDS011;3091;51.506;7.672;2023-07-20T05:06:53;39.50;;;36.70;;
6121;SDS011;3091;51.506;7.672;2023-07-20T05:09:19;42.83;;;39.83;;
6121;SDS011;3091;51.506;7.672;2023-07-20T05:11:45;40.70;;;37.90;;
6121;SDS011;3091;51.506;7.672;2023-07-20T05:14:12;42.20;;;38.93;;
6121;SDS011;3091;51.506;7.672;2023-07-20T05:16:38;37.60;;;34.90;;
6121;SDS011;3091;51.506;7.672;2023-07-20T05:19:04;37.27;;;34.67;;
6121;SDS011;3091;51.506;7.672;2023-07-20T05:21:30;38.27;;;35.67;;
6121;SDS011;3091;51.506;7.672;2023-07-20T05:23:56;39.20;;;36.60;;
6121;SDS011;3091;51.506;7.672;2023-07-20T05:26:22;38.47;;;35.87;;
6121;SDS011;3091;51.506;7.672;2023-07-20T05:28:48;39.03;;;36.30;;
6121;SDS011;3091;51.506;7.672;2023-07-20T05:31:14;41.03;;;38.03;;
6121;SDS011;3091;51.506;7.672;2023-07-20T05:33:40;37.27;;;34.67;;
6121;SDS011;3091;51.506;7.672;2023-07-20T05:36:06;40.63;;;37.83;;
6121;SDS011;3091;51.506;7.672;2023-07-20T05:38:32;45.83;;;42.73;;
6121;SDS011;3091;51.506;7.672;2023-07-20T05:40:59;50.37;;;46.90;;
6121;SDS011;3091;51.506;7.672;2023-07-20T05:43:28;50.00;;;46.60;;
6121;SDS011;3091;51.506;7.672;2023-07-20T05:45:55;48.17;;;44.87;;
6121;SDS011;3091;51.506;7.672;2023-07-20T05:48:21;50.57;;;46.80;;
6121;SDS011;3091;51.506;7.672;2023-07-20T05:50:47;55.50;;;52.00;;
6121;SDS011;3091;51.506;7.672;2023-07-20T05:53:13;60.60;;;56.80;;
6121;SDS011;3091;51.506;7.672;2023-07-20T05:55:39;57.37;;;53.77;;
6121;SDS011;3091;51.506;7.672;2023-07-20T05:58:05;61.50;;;57.60;;
6121;SDS011;3091;51.506;7.672;2023-07-20T06:00:31;63.90;;;60.03;;
6121;SDS011;3091;51.506;7.672;2023-07-20T06:02:57;61.27;;;57.47;;
6121;SDS011;3091;51.506;7.672;2023-07-20T06:05:23;58.07;;;54.47;;
6121;SDS011;3091;51.506;7.672;2023-07-20T06:07:50;56.17;;;52.67;;
6121;SDS011;3091;51.506;7.672;2023-07-20T06:10:16;55.03;;;51.63;;
6121;SDS011;3091;51.506;7.672;2023-07-20T06:12:42;51.90;;;48.60;;
6121;SDS011;3091;51.506;7.672;2023-07-20T06:15:23;50.10;;;46.90;;
6121;SDS011;3091;51.506;7.672;2023-07-20T06:17:50;51.57;;;48.47;;
6121;SDS011;3091;51.506;7.672;2023-07-20T06:20:16;53.70;;;50.40;;
6121;SDS011;3091;51.506;7.672;2023-07-20T06:22:44;57.77;;;54.37;;
6121;SDS011;3091;51.506;7.672;2023-07-20T06:25:13;67.80;;;64.00;;
6121;SDS011;3091;51.506;7.672;2023-07-20T06:27:39;65.77;;;61.77;;
6121;SDS011;3091;51.506;7.672;2023-07-20T06:30:05;64.40;;;60.90;;
6121;SDS011;3091;51.506;7.672;2023-07-20T06:32:31;56.50;;;53.50;;
6121;SDS011;3091;51.506;7.672;2023-07-20T06:34:57;51.70;;;48.90;;
6121;SDS011;3091;51.506;7.672;2023-07-20T06:37:23;43.00;;;40.80;;
6121;SDS011;3091;51.506;7.672;2023-07-20T06:39:49;36.60;;;34.70;;
6121;SDS011;3091;51.506;7.672;2023-07-20T06:42:15;32.43;;;30.63;;
6121;SDS011;3091;51.506;7.672;2023-07-20T06:44:41;28.37;;;26.87;;
6121;SDS011;3091;51.506;7.672;2023-07-20T06:47:07;22.10;;;21.10;;
6121;SDS011;3091;51.506;7.672;2023-07-20T06:49:33;21.30;;;20.30;;
6121;SDS011;3091;51.506;7.672;2023-07-20T06:52:02;21.30;;;20.30;;
6121;SDS011;3091;51.506;7.672;2023-07-20T06:54:28;19.40;;;18.60;;
6121;SDS011;3091;51.506;7.672;2023-07-20T06:56:54;18.60;;;17.80;;
6121;SDS011;3091;51.506;7.672;2023-07-20T06:59:23;17.70;;;17.00;;
6121;SDS011;3091;51.506;7.672;2023-07-20T07:01:49;17.90;;;17.20;;
6121;SDS011;3091;51.506;7.672;2023-07-20T07:04:15;17.27;;;16.47;;
6121;SDS011;3091;51.506;7.672;2023-07-20T07:06:41;17.50;;;16.80;;
6121;SDS011;3091;51.506;7.672;2023-07-20T07:09:08;16.40;;;15.80;;
6121;SDS011;3091;51.506;7.672;2023-07-20T07:11:34;15.97;;;15.37;;
6121;SDS011;3091;51.506;7.672;2023-07-20T07:14:00;15.30;;;14.70;;
6121;SDS011;3091;51.506;7.672;2023-07-20T07:16:26;16.13;;;15.53;;
6121;SDS011;3091;51.506;7.672;2023-07-20T07:18:52;14.50;;;14.00;;
6121;SDS011;3091;51.506;7.672;2023-07-20T07:21:18;14.10;;;13.60;;
6121;SDS011;3091;51.506;7.672;2023-07-20T07:23:44;13.60;;;13.10;;
6121;SDS011;3091;51.506;7.672;2023-07-20T07:26:11;14.30;;;13.80;;
6121;SDS011;3091;51.506;7.672;2023-07-20T07:28:39;14.10;;;13.60;;
6121;SDS011;3091;51.506;7.672;2023-07-20T07:31:06;13.70;;;13.20;;
6121;SDS011;3091;51.506;7.672;2023-07-20T07:33:33;13.83;;;13.33;;
6121;SDS011;3091;51.506;7.672;2023-07-20T07:36:00;13.70;;;13.20;;
6121;SDS011;3091;51.506;7.672;2023-07-20T07:38:26;13.80;;;13.30;;
6121;SDS011;3091;51.506;7.672;2023-07-20T07:40:52;13.50;;;13.00;;
6121;SDS011;3091;51.506;7.672;2023-07-20T07:43:20;14.23;;;13.73;;
6121;SDS011;3091;51.506;7.672;2023-07-20T07:45:48;13.70;;;13.20;;
6121;SDS011;3091;51.506;7.672;2023-07-20T07:48:14;13.80;;;13.30;;
6121;SDS011;3091;51.506;7.672;2023-07-20T07:50:40;14.00;;;13.50;;
6121;SDS011;3091;51.506;7.672;2023-07-20T07:53:07;13.77;;;13.27;;
6121;SDS011;3091;51.506;7.672;2023-07-20T07:55:35;13.70;;;13.20;;
6121;SDS011;3091;51.506;7.672;2023-07-20T07:58:01;14.10;;;13.60;;
6121;SDS011;3091;51.506;7.672;2023-07-20T08:00:27;14.10;;;13.60;;
6121;SDS011;3091;51.506;7.672;2023-07-20T08:02:53;14.00;;;13.50;;
6121;SDS011;3091;51.506;7.672;2023-07-20T08:05:19;14.13;;;13.63;;
6121;SDS011;3091;51.506;7.672;2023-07-20T08:07:45;13.77;;;13.27;;
6121;SDS011;3091;51.506;7.672;2023-07-20T08:10:11;14.30;;;13.80;;
6121;SDS011;3091;51.506;7.672;2023-07-20T08:12:37;14.03;;;13.53;;
6121;SDS011;3091;51.506;7.672;2023-07-20T08:15:03;14.00;;;13.50;;
6121;SDS011;3091;51.506;7.672;2023-07-20T08:17:29;14.60;;;14.10;;
6121;SDS011;3091;51.506;7.672;2023-07-20T08:19:57;14.40;;;13.90;;
6121;SDS011;3091;51.506;7.672;2023-07-20T08:22:23;14.43;;;13.93;;
6121;SDS011;3091;51.506;7.672;2023-07-20T08:24:49;13.90;;;13.40;;
6121;SDS011;3091;51.506;7.672;2023-07-20T08:27:15;14.30;;;13.80;;
6121;SDS011;3091;51.506;7.672;2023-07-20T08:29:41;14.00;;;13.50;;
6121;SDS011;3091;51.506;7.672;2023-07-20T08:32:07;14.00;;;13.50;;
6121;SDS011;3091;51.506;7.672;2023-07-20T08:34:38;13.90;;;13.40;;
6121;SDS011;3091;51.506;7.672;2023-07-20T08:37:04;14.17;;;13.67;;
6121;SDS011;3091;51.506;7.672;2023-07-20T08:39:31;14.40;;;13.90;;
6121;SDS011;3091;51.506;7.672;2023-07-20T08:41:57;13.70;;;13.20;;
6121;SDS011;3091;51.506;7.672;2023-07-20T08:44:25;13.60;;;13.10;;
6121;SDS011;3091;51.506;7.672;2023-07-20T08:46:51;13.40;;;12.90;;
6121;SDS011;3091;51.506;7.672;2023-07-20T08:49:18;13.47;;;12.97;;
6121;SDS011;3091;51.506;7.672;2023-07-20T08:51:45;13.50;;;13.00;;
6121;SDS011;3091;51.506;7.672;2023-07-20T08:54:12;13.17;;;12.77;;
6121;SDS011;3091;51.506;7.672;2023-07-20T08:56:38;13.50;;;13.00;;
6121;SDS011;3091;51.506;7.672;2023-07-20T08:59:07;14.33;;;13.83;;
6121;SDS011;3091;51.506;7.672;2023-07-20T09:01:34;13.80;;;13.30;;
6121;SDS011;3091;51.506;7.672;2023-07-20T09:04:01;13.40;;;12.90;;
6121;SDS011;3091;51.506;7.672;2023-07-20T09:06:27;13.40;;;12.90;;
6121;SDS011;3091;51.506;7.672;2023-07-20T09:08:53;13.03;;;12.63;;
6121;SDS011;3091;51.506;7.672;2023-07-20T09:11:19;13.70;;;13.20;;
6121;SDS011;3091;51.506;7.672;2023-07-20T09:13:45;13.60;;;13.10;;
6121;SDS011;3091;51.506;7.672;2023-07-20T09:16:14;13.83;;;13.33;;
6121;SDS011;3091;51.506;7.672;2023-07-20T09:18:40;14.00;;;13.50;;
6121;SDS011;3091;51.506;7.672;2023-07-20T09:21:06;13.70;;;13.20;;
6121;SDS011;3091;51.506;7.672;2023-07-20T09:23:36;13.83;;;13.33;;
6121;SDS011;3091;51.506;7.672;2023-07-20T09:26:10;13.80;;;13.30;;
6121;SDS011;3091;51.506;7.672;2023-07-20T09:28:42;14.00;;;13.50;;
6121;SDS011;3091;51.506;7.672;2023-07-20T09:31:15;14.20;;;13.70;;
6121;SDS011;3091;51.506;7.672;2023-07-20T09:33:42;13.87;;;13.37;;
6121;SDS011;3091;51.506;7.672;2023-07-20T09:36:09;14.10;;;13.60;;
6121;SDS011;3091;51.506;7.672;2023-07-20T09:38:36;13.87;;;13.37;;
6121;SDS011;3091;51.506;7.672;2023-07-20T09:41:04;14.20;;;13.70;;
6121;SDS011;3091;51.506;7.672;2023-07-20T09:43:34;13.77;;;13.27;;
6121;SDS011;3091;51.506;7.672;2023-07-20T09:46:00;14.03;;;13.53;;
6121;SDS011;3091;51.506;7.672;2023-07-20T09:48:26;14.03;;;13.53;;
6121;SDS011;3091;51.506;7.672;2023-07-20T09:50:53;14.10;;;13.60;;
6121;SDS011;3091;51.506;7.672;2023-07-20T09:53:19;14.03;;;13.53;;
6121;SDS011;3091;51.506;7.672;2023-07-20T09:55:46;13.63;;;13.13;;
6121;SDS011;3091;51.506;7.672;2023-07-20T09:58:13;13.97;;;13.47;;
6121;SDS011;3091;51.506;7.672;2023-07-20T10:00:40;14.00;;;13.50;;
6121;SDS011;3091;51.506;7.672;2023-07-20T10:03:13;14.33;;;13.83;;
6121;SDS011;3091;51.506;7.672;2023-07-20T10:05:40;14.20;;;13.70;;
6121;SDS011;3091;51.506;7.672;2023-07-20T10:08:09;14.00;;;13.50;;
6121;SDS011;3091;51.506;7.672;2023-07-20T10:10:36;13.60;;;13.10;;
6121;SDS011;3091;51.506;7.672;2023-07-20T10:13:04;13.60;;;13.10;;
6121;SDS011;3091;51.506;7.672;2023-07-20T10:15:40;13.27;;;12.87;;
6121;SDS011;3091;51.506;7.672;2023-07-20T10:18:17;13.40;;;12.90;;
6121;SDS011;3091;51.506;7.672;2023-07-20T10:20:45;13.50;;;13.00;;
6121;SDS011;3091;51.506;7.672;2023-07-20T10:23:11;13.40;;;12.90;;
6121;SDS011;3091;51.506;7.672;2023-07-20T10:25:38;13.53;;;13.03;;
6121;SDS011;3091;51.506;7.672;2023-07-20T10:28:06;13.07;;;12.67;;
6121;SDS011;3091;51.506;7.672;2023-07-20T10:30:35;13.27;;;12.87;;
6121;SDS011;3091;51.506;7.672;2023-07-20T10:33:05;13.00;;;12.60;;
6121;SDS011;3091;51.506;7.672;2023-07-20T10:35:50;13.10;;;12.70;;
6121;SDS011;3091;51.506;7.672;2023-07-20T10:38:16;12.70;;;12.30;;
6121;SDS011;3091;51.506;7.672;2023-07-20T10:40:42;13.20;;;12.80;;
6121;SDS011;3091;51.506;7.672;2023-07-20T10:43:10;14.77;;;14.23;;
6121;SDS011;3091;51.506;7.672;2023-07-20T10:45:41;14.23;;;13.73;;
6121;SDS011;3091;51.506;7.672;2023-07-20T10:48:14;14.10;;;13.60;;
6121;SDS011;3091;51.506;7.672;2023-07-20T10:50:44;13.07;;;12.67;;
6121;SDS011;3091;51.506;7.672;2023-07-20T10:53:11;13.37;;;12.97;;
6121;SDS011;3091;51.506;7.672;2023-07-20T10:55:38;13.03;;;12.63;;
6121;SDS011;3091;51.506;7.672;2023-07-20T10:58:08;12.93;;;12.53;;
6121;SDS011;3091;51.506;7.672;2023-07-20T11:00:35;12.60;;;12.20;;
6121;SDS011;3091;51.506;7.672;2023-07-20T11:03:01;12.93;;;12.53;;
6121;SDS011;3091;51.506;7.672;2023-07-20T11:05:34;13.00;;;12.60;;
6121;SDS011;3091;51.506;7.672;2023-07-20T11:08:03;13.40;;;12.90;;
6121;SDS011;3091;51.506;7.672;2023-07-20T11:10:29;13.17;;;12.77;;
6121;SDS011;3091;51.506;7.672;2023-07-20T11:15:46;14.20;;;13.70;;
6121;SDS011;3091;51.506;7.672;2023-07-20T11:18:13;13.73;;;13.23;;
6121;SDS011;3091;51.506;7.672;2023-07-20T11:20:39;13.90;;;13.40;;
6121;SDS011;3091;51.506;7.672;2023-07-20T11:23:05;12.40;;;12.00;;
6121;SDS011;3091;51.506;7.672;2023-07-20T11:25:38;12.90;;;12.50;;
6121;SDS011;3091;51.506;7.672;2023-07-20T11:28:08;13.20;;;12.80;;
6121;SDS011;3091;51.506;7.672;2023-07-20T11:30:37;13.50;;;13.00;;
6121;SDS011;3091;51.506;7.672;2023-07-20T11:33:04;12.93;;;12.53;;
6121;SDS011;3091;51.506;7.672;2023-07-20T11:35:31;13.27;;;12.87;;
6121;SDS011;3091;51.506;7.672;2023-07-20T11:37:57;13.40;;;12.90;;
6121;SDS011;3091;51.506;7.672;2023-07-20T11:40:25;12.70;;;12.30;;
6121;SDS011;3091;51.506;7.672;2023-07-20T11:42:51;13.00;;;12.60;;
6121;SDS011;3091;51.506;7.672;2023-07-20T11:45:19;12.87;;;12.47;;
6121;SDS011;3091;51.506;7.672;2023-07-20T11:47:45;13.47;;;12.97;;
6121;SDS011;3091;51.506;7.672;2023-07-20T11:50:11;13.93;;;13.43;;
6121;SDS011;3091;51.506;7.672;2023-07-20T11:52:39;14.27;;;13.77;;
6121;SDS011;3091;51.506;7.672;2023-07-20T11:55:05;13.00;;;12.60;;
6121;SDS011;3091;51.506;7.672;2023-07-20T11:57:34;13.10;;;12.70;;
6121;SDS011;3091;51.506;7.672;2023-07-20T12:00:02;13.30;;;12.90;;
6121;SDS011;3091;51.506;7.672;2023-07-20T12:02:37;12.43;;;12.03;;
6121;SDS011;3091;51.506;7.672;2023-07-20T12:05:04;12.80;;;12.40;;
6121;SDS011;3091;51.506;7.672;2023-07-20T12:07:34;12.70;;;12.30;;
6121;SDS011;3091;51.506;7.672;2023-07-20T12:10:07;13.17;;;12.77;;
6121;SDS011;3091;51.506;7.672;2023-07-20T12:12:36;13.30;;;12.90;;
6121;SDS011;3091;51.506;7.672;2023-07-20T12:17:42;13.00;;;12.60;;
6121;SDS011;3091;51.506;7.672;2023-07-20T12:20:08;13.50;;;13.03;;
6121;SDS011;3091;51.506;7.672;2023-07-20T12:22:38;12.90;;;12.50;;
6121;SDS011;3091;51.506;7.672;2023-07-20T12:25:05;12.80;;;12.40;;
6121;SDS011;3091;51.506;7.672;2023-07-20T12:27:32;13.40;;;12.90;;
6121;SDS011;3091;51.506;7.672;2023-07-20T12:29:58;14.10;;;13.60;;
6121;SDS011;3091;51.506;7.672;2023-07-20T12:32:24;14.10;;;13.60;;
6121;SDS011;3091;51.506;7.672;2023-07-20T12:34:50;14.20;;;13.70;;
6121;SDS011;3091;51.506;7.672;2023-07-20T12:37:17;14.23;;;13.73;;
6121;SDS011;3091;51.506;7.672;2023-07-20T12:39:43;13.80;;;13.30;;
6121;SDS011;3091;51.506;7.672;2023-07-20T12:42:14;13.63;;;13.13;;
6121;SDS011;3091;51.506;7.672;2023-07-20T12:44:41;13.20;;;12.80;;
6121;SDS011;3091;51.506;7.672;2023-07-20T12:47:07;13.20;;;12.80;;
6121;SDS011;3091;51.506;7.672;2023-07-20T12:49:33;12.90;;;12.50;;
6121;SDS011;3091;51.506;7.672;2023-07-20T12:51:59;12.73;;;12.33;;
6121;SDS011;3091;51.506;7.672;2023-07-20T12:54:25;13.60;;;13.10;;
6121;SDS011;3091;51.506;7.672;2023-07-20T12:56:51;13.90;;;13.40;;
6121;SDS011;3091;51.506;7.672;2023-07-20T12:59:17;13.47;;;13.00;;
6121;SDS011;3091;51.506;7.672;2023-07-20T13:01:43;13.60;;;13.10;;
6121;SDS011;3091;51.506;7.672;2023-07-20T13:04:10;13.13;;;12.73;;
6121;SDS011;3091;51.506;7.672;2023-07-20T13:06:36;13.40;;;12.93;;
6121;SDS011;3091;51.506;7.672;2023-07-20T13:09:05;13.13;;;12.73;;
6121;SDS011;3091;51.506;7.672;2023-07-20T13:11:31;13.03;;;12.63;;
6121;SDS011;3091;51.506;7.672;2023-07-20T13:13:57;13.47;;;12.97;;
6121;SDS011;3091;51.506;7.672;2023-07-20T13:16:23;13.50;;;13.00;;
6121;SDS011;3091;51.506;7.672;2023-07-20T13:18:51;13.43;;;12.93;;
6121;SDS011;3091;51.506;7.672;2023-07-20T13:21:18;13.40;;;12.90;;
6121;SDS011;3091;51.506;7.672;2023-07-20T13:23:47;13.60;;;13.10;;
6121;SDS011;3091;51.506;7.672;2023-07-20T13:26:13;12.97;;;12.57;;
6121;SDS011;3091;51.506;7.672;2023-07-20T13:28:39;14.73;;;14.13;;
6121;SDS011;3091;51.506;7.672;2023-07-20T13:31:05;14.03;;;13.53;;
6121;SDS011;3091;51.506;7.672;2023-07-20T13:33:33;14.20;;;13.70;;
6121;SDS011;3091;51.506;7.672;2023-07-20T13:36:00;13.67;;;13.17;;
6121;SDS011;3091;51.506;7.672;2023-07-20T13:38:26;13.90;;;13.40;;
6121;SDS011;3091;51.506;7.672;2023-07-20T13:40:52;13.70;;;13.20;;
6121;SDS011;3091;51.506;7.672;2023-07-20T13:43:18;13.70;;;13.20;;
6121;SDS011;3091;51.506;7.672;2023-07-20T13:45:44;13.40;;;12.90;;
6121;SDS011;3091;51.506;7.672;2023-07-20T13:48:10;13.70;;;13.20;;
6121;SDS011;3091;51.506;7.672;2023-07-20T13:50:36;13.90;;;13.40;;
6121;SDS011;3091;51.506;7.672;2023-07-20T13:53:05;13.80;;;13.30;;
6121;SDS011;3091;51.506;7.672;2023-07-20T13:55:31;14.10;;;13.60;;
6121;SDS011;3091;51.506;7.672;2023-07-20T13:57:58;13.57;;;13.07;;
6121;SDS011;3091;51.506;7.672;2023-07-20T14:00:24;13.60;;;13.10;;
6121;SDS011;3091;51.506;7.672;2023-07-20T14:02:55;13.50;;;13.00;;
6121;SDS011;3091;51.506;7.672;2023-07-20T14:05:23;13.60;;;13.10;;
6121;SDS011;3091;51.506;7.672;2023-07-20T14:07:50;13.60;;;13.10;;
6121;SDS011;3091;51.506;7.672;2023-07-20T14:10:15;13.50;;;13.00;;
6121;SDS011;3091;51.506;7.672;2023-07-20T14:12:42;13.27;;;12.77;;
6121;SDS011;3091;51.506;7.672;2023-07-20T14:15:09;14.00;;;13.50;;
6121;SDS011;3091;51.506;7.672;2023-07-20T14:17:35;12.43;;;12.03;;
6121;SDS011;3091;51.506;7.672;2023-07-20T14:20:01;12.90;;;12.50;;
6121;SDS011;3091;51.506;7.672;2023-07-20T14:22:30;12.53;;;12.13;;
6121;SDS011;3091;51.506;7.672;2023-07-20T14:24:56;12.37;;;11.97;;
6121;SDS011;3091;51.506;7.672;2023-07-20T14:27:22;12.60;;;12.20;;
6121;SDS011;3091;51.506;7.672;2023-07-20T14:29:48;12.17;;;11.77;;
6121;SDS011;3091;51.506;7.672;2023-07-20T14:32:14;12.70;;;12.20;;
6121;SDS011;3091;51.506;7.672;2023-07-20T14:34:40;12.27;;;11.87;;
6121;SDS011;3091;51.506;7.672;2023-07-20T14:37:06;12.30;;;11.90;;
6121;SDS011;3091;51.506;7.672;2023-07-20T14:39:32;12.50;;;12.10;;
6121;SDS011;3091;51.506;7.672;2023-07-20T14:41:59;12.30;;;11.90;;
6121;SDS011;3091;51.506;7.672;2023-07-20T14:44:25;12.40;;;12.00;;
6121;SDS011;3091;51.506;7.672;2023-07-20T14:46:51;12.50;;;12.10;;
6121;SDS011;3091;51.506;7.672;2023-07-20T14:49:17;12.50;;;12.10;;
6121;SDS011;3091;51.506;7.672;2023-07-20T14:51:43;12.83;;;12.43;;
6121;SDS011;3091;51.506;7.672;2023-07-20T14:54:12;12.93;;;12.53;;